sensor_id;sensor_type;location;lat;lon;timestamp;pressure;altitude;pressure_sealevel;temperature;humidity
63552;BME280;49698;48.072;7.800;2023-03-03T00:01:03;99660.25;;;-0.28;86.35
63552;BME280;49698;48.072;7.800;2023-03-03T00:03:31;99661.69;;;-0.32;86.36
63552;BME280;49698;48.072;7.800;2023-03-03T00:06:02;99656.22;;;-0.37;86.96
63552;BME280;49698;48.072;7.800;2023-03-03T00:08:30;99655.00;;;-0.41;87.08
63552;BME280;49698;48.072;7.800;2023-03-03T00:10:59;99666.78;;;-0.43;87.11
63552;BME280;49698;48.072;7.800;2023-03-03T00:13:29;99654.19;;;-0.48;86.89
63552;BME280;49698;48.072;7.800;2023-03-03T00:16:11;99661.72;;;-0.52;87.16
63552;BME280;49698;48.072;7.800;2023-03-03T00:18:41;99667.22;;;-0.53;86.97
63552;BME280;49698;48.072;7.800;2023-03-03T00:21:22;99656.81;;;-0.55;87.28
63552;BME280;49698;48.072;7.800;2023-03-03T00:23:51;99668.00;;;-0.53;87.19
63552;BME280;49698;48.072;7.800;2023-03-03T00:26:21;99672.47;;;-0.53;87.09
63552;BME280;49698;48.072;7.800;2023-03-03T00:28:51;99663.75;;;-0.54;86.97
63552;BME280;49698;48.072;7.800;2023-03-03T00:31:24;99663.94;;;-0.55;86.74
63552;BME280;49698;48.072;7.800;2023-03-03T00:33:54;99668.41;;;-0.56;86.91
63552;BME280;49698;48.072;7.800;2023-03-03T00:36:33;99665.59;;;-0.54;87.13
63552;BME280;49698;48.072;7.800;2023-03-03T00:39:17;99662.94;;;-0.54;86.85
63552;BME280;49698;48.072;7.800;2023-03-03T00:41:45;99670.66;;;-0.53;86.82
63552;BME280;49698;48.072;7.800;2023-03-03T00:44:32;99668.81;;;-0.52;87.23
63552;BME280;49698;48.072;7.800;2023-03-03T00:50:16;99676.75;;;-0.52;87.23
63552;BME280;49698;48.072;7.800;2023-03-03T00:52:58;99673.28;;;-0.53;86.86
63552;BME280;49698;48.072;7.800;2023-03-03T00:55:28;99663.75;;;-0.54;87.02
63552;BME280;49698;48.072;7.800;2023-03-03T00:57:56;99671.88;;;-0.55;87.19
63552;BME280;49698;48.072;7.800;2023-03-03T01:00:29;99670.03;;;-0.55;87.56
63552;BME280;49698;48.072;7.800;2023-03-03T01:03:02;99678.78;;;-0.54;87.21
63552;BME280;49698;48.072;7.800;2023-03-03T01:05:30;99676.16;;;-0.54;87.33
63552;BME280;49698;48.072;7.800;2023-03-03T01:08:01;99678.97;;;-0.56;87.26
63552;BME280;49698;48.072;7.800;2023-03-03T01:10:31;99676.16;;;-0.54;87.56
63552;BME280;49698;48.072;7.800;2023-03-03T01:13:00;99676.16;;;-0.54;87.76
63552;BME280;49698;48.072;7.800;2023-03-03T01:15:28;99670.66;;;-0.53;87.59
63552;BME280;49698;48.072;7.800;2023-03-03T01:17:56;99666.41;;;-0.54;87.77
63552;BME280;49698;48.072;7.800;2023-03-03T01:20:24;99669.84;;;-0.53;87.90
63552;BME280;49698;48.072;7.800;2023-03-03T01:22:52;99669.44;;;-0.50;87.66
63552;BME280;49698;48.072;7.800;2023-03-03T01:25:22;99665.78;;;-0.49;87.70
63552;BME280;49698;48.072;7.800;2023-03-03T01:27:50;99668.81;;;-0.52;87.77
63552;BME280;49698;48.072;7.800;2023-03-03T01:30:18;99657.44;;;-0.59;87.65
63552;BME280;49698;48.072;7.800;2023-03-03T01:32:46;99657.44;;;-0.66;87.95
63552;BME280;49698;48.072;7.800;2023-03-03T01:35:14;99668.00;;;-0.72;87.78
63552;BME280;49698;48.072;7.800;2023-03-03T01:37:42;99663.94;;;-0.82;88.35
63552;BME280;49698;48.072;7.800;2023-03-03T01:40:14;99657.44;;;-0.86;88.51
63552;BME280;49698;48.072;7.800;2023-03-03T01:42:44;99656.84;;;-0.88;88.31
63552;BME280;49698;48.072;7.800;2023-03-03T01:45:16;99662.72;;;-0.86;88.82
63552;BME280;49698;48.072;7.800;2023-03-03T01:47:49;99663.13;;;-0.82;88.93
63552;BME280;49698;48.072;7.800;2023-03-03T01:50:26;99660.91;;;-0.79;89.02
63552;BME280;49698;48.072;7.800;2023-03-03T01:52:57;99655.00;;;-0.74;88.79
63552;BME280;49698;48.072;7.800;2023-03-03T01:55:29;99657.25;;;-0.71;88.98
63552;BME280;49698;48.072;7.800;2023-03-03T01:58:03;99656.44;;;-0.65;88.72
63552;BME280;49698;48.072;7.800;2023-03-03T02:00:35;99659.50;;;-0.61;88.74
63552;BME280;49698;48.072;7.800;2023-03-03T02:03:04;99655.44;;;-0.57;88.28
63552;BME280;49698;48.072;7.800;2023-03-03T02:05:33;99656.66;;;-0.53;88.59
63552;BME280;49698;48.072;7.800;2023-03-03T02:08:02;99649.13;;;-0.50;88.29
63552;BME280;49698;48.072;7.800;2023-03-03T02:10:34;99646.09;;;-0.46;88.19
63552;BME280;49698;48.072;7.800;2023-03-03T02:13:04;99648.50;;;-0.45;88.27
63552;BME280;49698;48.072;7.800;2023-03-03T02:15:33;99650.13;;;-0.44;87.99
63552;BME280;49698;48.072;7.800;2023-03-03T02:18:04;99645.88;;;-0.45;88.00
63552;BME280;49698;48.072;7.800;2023-03-03T02:20:42;99641.00;;;-0.48;88.00
63552;BME280;49698;48.072;7.800;2023-03-03T02:23:16;99643.63;;;-0.55;88.24
63552;BME280;49698;48.072;7.800;2023-03-03T02:25:59;99650.53;;;-0.60;88.50
63552;BME280;49698;48.072;7.800;2023-03-03T02:28:31;99643.44;;;-0.66;88.56
63552;BME280;49698;48.072;7.800;2023-03-03T02:31:05;99638.34;;;-0.75;88.79
63552;BME280;49698;48.072;7.800;2023-03-03T02:33:34;99636.75;;;-0.76;88.70
63552;BME280;49698;48.072;7.800;2023-03-03T02:36:02;99630.25;;;-0.80;88.87
63552;BME280;49698;48.072;7.800;2023-03-03T02:38:35;99625.38;;;-0.83;89.08
63552;BME280;49698;48.072;7.800;2023-03-03T02:41:09;99636.94;;;-0.84;88.76
63552;BME280;49698;48.072;7.800;2023-03-03T02:43:44;99635.94;;;-0.83;88.49
63552;BME280;49698;48.072;7.800;2023-03-03T02:46:13;99635.75;;;-0.81;88.70
63552;BME280;49698;48.072;7.800;2023-03-03T02:48:41;99623.34;;;-0.81;88.51
63552;BME280;49698;48.072;7.800;2023-03-03T02:51:09;99631.28;;;-0.81;88.72
63552;BME280;49698;48.072;7.800;2023-03-03T02:53:38;99628.63;;;-0.81;88.44
63552;BME280;49698;48.072;7.800;2023-03-03T02:56:08;99619.91;;;-0.81;88.22
63552;BME280;49698;48.072;7.800;2023-03-03T02:58:36;99615.84;;;-0.84;88.32
63552;BME280;49698;48.072;7.800;2023-03-03T03:01:04;99620.50;;;-0.86;88.31
63552;BME280;49698;48.072;7.800;2023-03-03T03:03:33;99619.91;;;-0.88;88.43
63552;BME280;49698;48.072;7.800;2023-03-03T03:06:04;99628.84;;;-0.89;88.46
63552;BME280;49698;48.072;7.800;2023-03-03T03:08:33;99624.53;;;-0.90;88.46
63552;BME280;49698;48.072;7.800;2023-03-03T03:11:02;99631.66;;;-0.90;88.42
63552;BME280;49698;48.072;7.800;2023-03-03T03:13:33;99623.97;;;-0.92;88.69
63552;BME280;49698;48.072;7.800;2023-03-03T03:16:01;99629.63;;;-0.95;88.83
63552;BME280;49698;48.072;7.800;2023-03-03T03:18:29;99627.38;;;-0.98;88.85
63552;BME280;49698;48.072;7.800;2023-03-03T03:21:05;99629.00;;;-0.97;88.89
63552;BME280;49698;48.072;7.800;2023-03-03T03:23:33;99629.00;;;-0.97;88.97
63552;BME280;49698;48.072;7.800;2023-03-03T03:26:02;99624.75;;;-0.98;88.79
63552;BME280;49698;48.072;7.800;2023-03-03T03:28:30;99635.94;;;-0.96;88.65
63552;BME280;49698;48.072;7.800;2023-03-03T03:31:00;99632.28;;;-0.95;88.81
63552;BME280;49698;48.072;7.800;2023-03-03T03:33:28;99637.53;;;-0.95;88.97
63552;BME280;49698;48.072;7.800;2023-03-03T03:35:58;99642.81;;;-0.95;88.59
63552;BME280;49698;48.072;7.800;2023-03-03T03:38:27;99642.81;;;-0.95;88.73
63552;BME280;49698;48.072;7.800;2023-03-03T03:40:55;99639.16;;;-0.94;88.55
63552;BME280;49698;48.072;7.800;2023-03-03T03:43:23;99650.75;;;-0.95;88.34
63552;BME280;49698;48.072;7.800;2023-03-03T03:45:52;99655.38;;;-0.97;88.24
63552;BME280;49698;48.072;7.800;2023-03-03T03:48:21;99653.78;;;-0.98;88.93
63552;BME280;49698;48.072;7.800;2023-03-03T03:50:51;99651.75;;;-1.03;88.84
63552;BME280;49698;48.072;7.800;2023-03-03T03:53:20;99657.41;;;-1.06;88.84
63552;BME280;49698;48.072;7.800;2023-03-03T03:55:48;99657.81;;;-1.09;88.97
63552;BME280;49698;48.072;7.800;2023-03-03T03:58:17;99656.81;;;-1.14;89.40
63552;BME280;49698;48.072;7.800;2023-03-03T04:00:52;99661.44;;;-1.16;89.18
63552;BME280;49698;48.072;7.800;2023-03-03T04:03:21;99661.88;;;-1.19;89.38
63552;BME280;49698;48.072;7.800;2023-03-03T04:05:51;99659.41;;;-1.21;89.64
63552;BME280;49698;48.072;7.800;2023-03-03T04:08:20;99662.84;;;-1.20;89.15
63552;BME280;49698;48.072;7.800;2023-03-03T04:10:48;99662.25;;;-1.23;89.55
63552;BME280;49698;48.072;7.800;2023-03-03T04:13:16;99669.53;;;-1.25;89.23
63552;BME280;49698;48.072;7.800;2023-03-03T04:15:44;99673.22;;;-1.26;89.52
63552;BME280;49698;48.072;7.800;2023-03-03T04:18:12;99669.97;;;-1.28;89.52
63552;BME280;49698;48.072;7.800;2023-03-03T04:20:42;99666.72;;;-1.30;89.63
63552;BME280;49698;48.072;7.800;2023-03-03T04:23:10;99671.16;;;-1.30;89.47
63552;BME280;49698;48.072;7.800;2023-03-03T04:25:38;99674.81;;;-1.31;89.35
63552;BME280;49698;48.072;7.800;2023-03-03T04:28:12;99663.44;;;-1.32;89.31
63552;BME280;49698;48.072;7.800;2023-03-03T04:30:40;99670.13;;;-1.36;89.40
63552;BME280;49698;48.072;7.800;2023-03-03T04:33:09;99669.53;;;-1.38;89.39
63552;BME280;49698;48.072;7.800;2023-03-03T04:35:39;99671.16;;;-1.37;89.79
63552;BME280;49698;48.072;7.800;2023-03-03T04:38:08;99675.41;;;-1.36;89.53
63552;BME280;49698;48.072;7.800;2023-03-03T04:40:39;99670.97;;;-1.35;89.95
63552;BME280;49698;48.072;7.800;2023-03-03T04:43:10;99670.13;;;-1.36;89.83
63552;BME280;49698;48.072;7.800;2023-03-03T04:45:38;99670.75;;;-1.34;89.57
63552;BME280;49698;48.072;7.800;2023-03-03T04:48:07;99673.38;;;-1.34;89.13
63552;BME280;49698;48.072;7.800;2023-03-03T04:50:35;99670.38;;;-1.31;89.70
63552;BME280;49698;48.072;7.800;2023-03-03T04:53:04;99678.88;;;-1.29;89.72
63552;BME280;49698;48.072;7.800;2023-03-03T04:55:34;99680.31;;;-1.26;89.75
63552;BME280;49698;48.072;7.800;2023-03-03T04:58:03;99679.28;;;-1.25;89.22
63552;BME280;49698;48.072;7.800;2023-03-03T05:00:31;99677.06;;;-1.21;89.29
63552;BME280;49698;48.072;7.800;2023-03-03T05:03:00;99680.94;;;-1.17;89.16
63552;BME280;49698;48.072;7.800;2023-03-03T05:05:29;99681.34;;;-1.14;88.98
63552;BME280;49698;48.072;7.800;2023-03-03T05:07:57;99683.78;;;-1.12;88.81
63552;BME280;49698;48.072;7.800;2023-03-03T05:10:25;99680.97;;;-1.11;88.82
63552;BME280;49698;48.072;7.800;2023-03-03T05:12:54;99682.56;;;-1.10;88.52
63552;BME280;49698;48.072;7.800;2023-03-03T05:15:22;99684.81;;;-1.07;88.68
63552;BME280;49698;48.072;7.800;2023-03-03T05:17:50;99683.63;;;-1.04;88.74
63552;BME280;49698;48.072;7.800;2023-03-03T05:20:19;99681.56;;;-1.02;88.76
63552;BME280;49698;48.072;7.800;2023-03-03T05:22:46;99673.25;;;-0.99;88.42
63552;BME280;49698;48.072;7.800;2023-03-03T05:25:14;99671.22;;;-0.97;88.61
63552;BME280;49698;48.072;7.800;2023-03-03T05:27:42;99668.19;;;-0.94;88.63
63552;BME280;49698;48.072;7.800;2023-03-03T05:30:12;99668.00;;;-0.92;88.31
63552;BME280;49698;48.072;7.800;2023-03-03T05:32:40;99680.97;;;-0.91;88.43
63552;BME280;49698;48.072;7.800;2023-03-03T05:35:09;99685.06;;;-0.88;88.76
63552;BME280;49698;48.072;7.800;2023-03-03T05:37:37;99687.09;;;-0.84;88.69
63552;BME280;49698;48.072;7.800;2023-03-03T05:40:09;99686.47;;;-0.79;88.55
63552;BME280;49698;48.072;7.800;2023-03-03T05:42:37;99692.16;;;-0.76;89.00
63552;BME280;49698;48.072;7.800;2023-03-03T05:45:06;99689.94;;;-0.72;88.46
63552;BME280;49698;48.072;7.800;2023-03-03T05:47:35;99694.00;;;-0.69;88.61
63552;BME280;49698;48.072;7.800;2023-03-03T05:50:04;99687.91;;;-0.70;88.45
63552;BME280;49698;48.072;7.800;2023-03-03T05:52:32;99702.94;;;-0.70;88.50
63552;BME280;49698;48.072;7.800;2023-03-03T05:55:00;99700.09;;;-0.69;88.75
63552;BME280;49698;48.072;7.800;2023-03-03T05:57:28;99706.19;;;-0.68;88.38
63552;BME280;49698;48.072;7.800;2023-03-03T05:59:56;99706.19;;;-0.68;88.48
63552;BME280;49698;48.072;7.800;2023-03-03T06:02:24;99710.25;;;-0.72;88.34
63552;BME280;49698;48.072;7.800;2023-03-03T06:04:53;99708.22;;;-0.77;88.60
63552;BME280;49698;48.072;7.800;2023-03-03T06:07:21;99705.16;;;-0.81;88.49
63552;BME280;49698;48.072;7.800;2023-03-03T06:09:49;99701.91;;;-0.83;88.89
63552;BME280;49698;48.072;7.800;2023-03-03T06:12:17;99700.47;;;-0.85;88.85
63552;BME280;49698;48.072;7.800;2023-03-03T06:14:45;99705.56;;;-0.84;88.75
63552;BME280;49698;48.072;7.800;2023-03-03T06:17:13;99702.72;;;-0.82;88.61
63552;BME280;49698;48.072;7.800;2023-03-03T06:19:41;99708.41;;;-0.79;88.77
63552;BME280;49698;48.072;7.800;2023-03-03T06:22:10;99714.31;;;-0.77;88.45
63552;BME280;49698;48.072;7.800;2023-03-03T06:24:38;99713.06;;;-0.74;88.38
63552;BME280;49698;48.072;7.800;2023-03-03T06:27:06;99711.88;;;-0.71;88.04
63552;BME280;49698;48.072;7.800;2023-03-03T06:29:34;99720.41;;;-0.69;88.47
63552;BME280;49698;48.072;7.800;2023-03-03T06:32:02;99719.78;;;-0.71;88.22
63552;BME280;49698;48.072;7.800;2023-03-03T06:34:30;99725.28;;;-0.73;88.27
63552;BME280;49698;48.072;7.800;2023-03-03T06:36:58;99724.25;;;-0.72;88.32
63552;BME280;49698;48.072;7.800;2023-03-03T06:39:27;99724.25;;;-0.72;88.26
63552;BME280;49698;48.072;7.800;2023-03-03T06:41:55;99732.19;;;-0.72;87.92
63552;BME280;49698;48.072;7.800;2023-03-03T06:44:24;99730.13;;;-0.70;88.09
63552;BME280;49698;48.072;7.800;2023-03-03T06:46:54;99735.81;;;-0.66;88.05
63552;BME280;49698;48.072;7.800;2023-03-03T06:49:23;99738.06;;;-0.63;88.13
63552;BME280;49698;48.072;7.800;2023-03-03T06:51:50;99739.09;;;-0.58;87.94
63552;BME280;49698;48.072;7.800;2023-03-03T06:54:20;99743.78;;;-0.53;87.87
63552;BME280;49698;48.072;7.800;2023-03-03T06:56:57;99735.66;;;-0.45;87.72
63552;BME280;49698;48.072;7.800;2023-03-03T06:59:26;99743.59;;;-0.38;87.44
63552;BME280;49698;48.072;7.800;2023-03-03T07:01:55;99744.59;;;-0.33;87.35
63552;BME280;49698;48.072;7.800;2023-03-03T07:04:26;99755.34;;;-0.28;86.88
63552;BME280;49698;48.072;7.800;2023-03-03T07:06:57;99746.63;;;-0.21;86.85
63552;BME280;49698;48.072;7.800;2023-03-03T07:09:27;99761.84;;;-0.17;86.61
63552;BME280;49698;48.072;7.800;2023-03-03T07:12:05;99766.13;;;-0.09;86.33
63552;BME280;49698;48.072;7.800;2023-03-03T07:14:40;99765.31;;;-0.03;86.40
63552;BME280;49698;48.072;7.800;2023-03-03T07:17:14;99759.41;;;0.02;86.23
63552;BME280;49698;48.072;7.800;2023-03-03T07:19:42;99765.09;;;0.05;86.05
63552;BME280;49698;48.072;7.800;2023-03-03T07:22:15;99770.78;;;0.09;85.92
63552;BME280;49698;48.072;7.800;2023-03-03T07:24:44;99767.53;;;0.13;85.79
63552;BME280;49698;48.072;7.800;2023-03-03T07:27:19;99774.66;;;0.19;85.75
63552;BME280;49698;48.072;7.800;2023-03-03T07:29:50;99774.84;;;0.24;85.64
63552;BME280;49698;48.072;7.800;2023-03-03T07:32:24;99773.19;;;0.30;85.42
63552;BME280;49698;48.072;7.800;2023-03-03T07:34:54;99764.63;;;0.35;85.42
63552;BME280;49698;48.072;7.800;2023-03-03T07:37:29;99782.31;;;0.41;85.51
63552;BME280;49698;48.072;7.800;2023-03-03T07:39:59;99774.56;;;0.46;85.25
63552;BME280;49698;48.072;7.800;2023-03-03T07:42:35;99776.41;;;0.52;85.02
63552;BME280;49698;48.072;7.800;2023-03-03T07:45:23;99783.50;;;0.58;85.00
63552;BME280;49698;48.072;7.800;2023-03-03T07:48:00;99785.31;;;0.64;84.74
63552;BME280;49698;48.072;7.800;2023-03-03T07:50:34;99791.81;;;0.68;84.91
63552;BME280;49698;48.072;7.800;2023-03-03T07:53:07;99798.13;;;0.74;84.84
63552;BME280;49698;48.072;7.800;2023-03-03T07:55:39;99789.53;;;0.79;84.52
63552;BME280;49698;48.072;7.800;2023-03-03T07:58:22;99805.19;;;0.87;84.43
63552;BME280;49698;48.072;7.800;2023-03-03T08:03:50;99803.09;;;1.02;84.23
63552;BME280;49698;48.072;7.800;2023-03-03T08:06:38;99802.03;;;1.10;84.09
63552;BME280;49698;48.072;7.800;2023-03-03T08:09:35;99804.22;;;1.19;83.94
63552;BME280;49698;48.072;7.800;2023-03-03T08:12:23;99809.88;;;1.30;83.68
63552;BME280;49698;48.072;7.800;2023-03-03T08:14:57;99811.84;;;1.41;83.45
63552;BME280;49698;48.072;7.800;2023-03-03T08:17:35;99815.88;;;1.50;83.15
63552;BME280;49698;48.072;7.800;2023-03-03T08:23:15;99804.31;;;1.69;82.65
63552;BME280;49698;48.072;7.800;2023-03-03T08:25:43;99808.34;;;1.79;82.61
63552;BME280;49698;48.072;7.800;2023-03-03T08:28:12;99808.09;;;1.87;82.37
63552;BME280;49698;48.072;7.800;2023-03-03T08:30:43;99813.69;;;1.97;82.36
63552;BME280;49698;48.072;7.800;2023-03-03T08:33:12;99796.50;;;2.06;82.00
63552;BME280;49698;48.072;7.800;2023-03-03T08:35:41;99798.66;;;2.16;81.87
63552;BME280;49698;48.072;7.800;2023-03-03T08:38:11;99806.13;;;2.26;81.67
63552;BME280;49698;48.072;7.800;2023-03-03T08:40:39;99805.41;;;2.37;81.42
63552;BME280;49698;48.072;7.800;2023-03-03T08:43:09;99806.59;;;2.41;81.26
63552;BME280;49698;48.072;7.800;2023-03-03T08:45:41;99803.28;;;2.45;81.55
63552;BME280;49698;48.072;7.800;2023-03-03T08:48:10;99806.88;;;2.51;81.61
63552;BME280;49698;48.072;7.800;2023-03-03T08:50:38;99809.47;;;2.58;81.54
63552;BME280;49698;48.072;7.800;2023-03-03T08:53:10;99806.91;;;2.69;81.24
63552;BME280;49698;48.072;7.800;2023-03-03T08:55:39;99816.19;;;2.79;80.86
63552;BME280;49698;48.072;7.800;2023-03-03T08:58:07;99817.97;;;2.85;80.68
63552;BME280;49698;48.072;7.800;2023-03-03T09:00:35;99815.69;;;2.88;80.38
63552;BME280;49698;48.072;7.800;2023-03-03T09:03:05;99817.22;;;2.96;80.32
63552;BME280;49698;48.072;7.800;2023-03-03T09:05:36;99815.88;;;3.05;80.04
63552;BME280;49698;48.072;7.800;2023-03-03T09:08:07;99815.56;;;3.13;79.65
63552;BME280;49698;48.072;7.800;2023-03-03T09:10:36;99809.97;;;3.22;79.50
63552;BME280;49698;48.072;7.800;2023-03-03T09:13:10;99813.31;;;3.29;79.03
63552;BME280;49698;48.072;7.800;2023-03-03T09:15:40;99805.72;;;3.32;79.10
63552;BME280;49698;48.072;7.800;2023-03-03T09:18:17;99809.91;;;3.40;79.10
63552;BME280;49698;48.072;7.800;2023-03-03T09:20:46;99811.88;;;3.44;78.96
63552;BME280;49698;48.072;7.800;2023-03-03T09:23:36;99817.13;;;3.51;78.90
63552;BME280;49698;48.072;7.800;2023-03-03T09:26:27;99817.03;;;3.58;78.76
63552;BME280;49698;48.072;7.800;2023-03-03T09:29:08;99819.44;;;3.59;78.33
63552;BME280;49698;48.072;7.800;2023-03-03T09:31:45;99818.56;;;3.65;78.28
63552;BME280;49698;48.072;7.800;2023-03-03T09:34:19;99822.13;;;3.71;78.17
63552;BME280;49698;48.072;7.800;2023-03-03T09:36:48;99818.81;;;3.76;77.79
63552;BME280;49698;48.072;7.800;2023-03-03T09:39:17;99820.00;;;3.80;77.65
63552;BME280;49698;48.072;7.800;2023-03-03T09:42:22;99827.16;;;3.91;77.52
63552;BME280;49698;48.072;7.800;2023-03-03T09:45:15;99822.09;;;4.01;76.95
63552;BME280;49698;48.072;7.800;2023-03-03T09:48:02;99820.38;;;4.07;76.82
63552;BME280;49698;48.072;7.800;2023-03-03T09:50:43;99820.69;;;4.10;76.98
63552;BME280;49698;48.072;7.800;2023-03-03T09:53:24;99823.50;;;4.15;76.62
63552;BME280;49698;48.072;7.800;2023-03-03T09:56:00;99818.28;;;4.21;76.35
63552;BME280;49698;48.072;7.800;2023-03-03T09:58:44;99826.97;;;4.28;76.33
63552;BME280;49698;48.072;7.800;2023-03-03T10:01:21;99822.47;;;4.40;76.08
63552;BME280;49698;48.072;7.800;2023-03-03T10:04:10;99827.44;;;4.48;75.78
63552;BME280;49698;48.072;7.800;2023-03-03T10:06:46;99826.53;;;4.54;75.59
63552;BME280;49698;48.072;7.800;2023-03-03T10:09:42;99823.50;;;4.62;75.47
63552;BME280;49698;48.072;7.800;2023-03-03T10:12:18;99821.97;;;4.66;75.22
63552;BME280;49698;48.072;7.800;2023-03-03T10:15:01;99819.66;;;4.70;74.70
63552;BME280;49698;48.072;7.800;2023-03-03T10:17:39;99824.38;;;4.80;74.65
63552;BME280;49698;48.072;7.800;2023-03-03T10:20:30;99828.41;;;4.94;74.16
63552;BME280;49698;48.072;7.800;2023-03-03T10:23:20;99826.31;;;5.08;73.94
63552;BME280;49698;48.072;7.800;2023-03-03T10:25:55;99822.13;;;5.12;73.84
63552;BME280;49698;48.072;7.800;2023-03-03T10:28:47;99823.63;;;5.20;73.38
63552;BME280;49698;48.072;7.800;2023-03-03T10:31:27;99826.56;;;5.35;72.75
63552;BME280;49698;48.072;7.800;2023-03-03T10:34:09;99826.22;;;5.60;72.52
63552;BME280;49698;48.072;7.800;2023-03-03T10:36:45;99829.22;;;5.80;71.58
63552;BME280;49698;48.072;7.800;2023-03-03T10:39:38;99822.31;;;5.96;71.30
63552;BME280;49698;48.072;7.800;2023-03-03T10:42:24;99831.31;;;6.07;70.85
63552;BME280;49698;48.072;7.800;2023-03-03T10:45:18;99828.66;;;6.24;70.49
63552;BME280;49698;48.072;7.800;2023-03-03T10:48:04;99819.25;;;6.38;69.77
63552;BME280;49698;48.072;7.800;2023-03-03T10:50:47;99822.72;;;6.55;69.19
63552;BME280;49698;48.072;7.800;2023-03-03T10:53:21;99829.06;;;6.71;68.53
63552;BME280;49698;48.072;7.800;2023-03-03T10:56:09;99823.19;;;6.91;67.95
63552;BME280;49698;48.072;7.800;2023-03-03T10:58:56;99826.47;;;6.98;67.42
63552;BME280;49698;48.072;7.800;2023-03-03T11:01:42;99828.66;;;7.01;67.32
63552;BME280;49698;48.072;7.800;2023-03-03T11:04:24;99830.91;;;7.09;67.18
63552;BME280;49698;48.072;7.800;2023-03-03T11:07:02;99822.88;;;7.09;66.89
63552;BME280;49698;48.072;7.800;2023-03-03T11:09:43;99817.09;;;7.18;66.68
63552;BME280;49698;48.072;7.800;2023-03-03T11:12:27;99815.56;;;7.27;66.56
63552;BME280;49698;48.072;7.800;2023-03-03T11:15:13;99811.84;;;7.28;65.90
63552;BME280;49698;48.072;7.800;2023-03-03T11:17:56;99808.22;;;7.39;65.53
63552;BME280;49698;48.072;7.800;2023-03-03T11:20:35;99800.88;;;7.51;64.99
63552;BME280;49698;48.072;7.800;2023-03-03T11:23:17;99808.44;;;7.59;65.04
63552;BME280;49698;48.072;7.800;2023-03-03T11:25:53;99805.91;;;7.75;64.72
63552;BME280;49698;48.072;7.800;2023-03-03T11:28:40;99806.72;;;7.75;64.73
63552;BME280;49698;48.072;7.800;2023-03-03T11:31:19;99805.94;;;7.80;64.85
63552;BME280;49698;48.072;7.800;2023-03-03T11:33:56;99803.94;;;7.97;64.38
63552;BME280;49698;48.072;7.800;2023-03-03T11:36:30;99807.03;;;8.16;63.29
63552;BME280;49698;48.072;7.800;2023-03-03T11:39:03;99808.19;;;8.25;62.89
63552;BME280;49698;48.072;7.800;2023-03-03T11:41:35;99805.25;;;8.32;62.83
63552;BME280;49698;48.072;7.800;2023-03-03T11:44:12;99800.00;;;8.37;62.57
63552;BME280;49698;48.072;7.800;2023-03-03T11:46:47;99800.38;;;8.56;62.47
63552;BME280;49698;48.072;7.800;2023-03-03T11:49:21;99792.38;;;8.66;61.55
63552;BME280;49698;48.072;7.800;2023-03-03T11:51:58;99787.22;;;8.54;61.36
63552;BME280;49698;48.072;7.800;2023-03-03T11:54:33;99785.06;;;8.51;61.40
63552;BME280;49698;48.072;7.800;2023-03-03T11:57:15;99796.03;;;8.45;61.23
63552;BME280;49698;48.072;7.800;2023-03-03T11:59:55;99800.00;;;8.42;61.45
63552;BME280;49698;48.072;7.800;2023-03-03T12:02:54;99791.34;;;8.30;61.61
63552;BME280;49698;48.072;7.800;2023-03-03T12:05:40;99787.25;;;8.17;61.98
63552;BME280;49698;48.072;7.800;2023-03-03T12:08:19;99787.97;;;8.07;61.90
63552;BME280;49698;48.072;7.800;2023-03-03T12:10:54;99785.72;;;7.94;62.24
63552;BME280;49698;48.072;7.800;2023-03-03T12:13:29;99778.69;;;7.83;62.67
63552;BME280;49698;48.072;7.800;2023-03-03T12:16:09;99781.09;;;7.84;63.02
63552;BME280;49698;48.072;7.800;2023-03-03T12:18:56;99770.66;;;7.83;62.79
63552;BME280;49698;48.072;7.800;2023-03-03T12:21:37;99772.84;;;7.91;63.14
63552;BME280;49698;48.072;7.800;2023-03-03T12:24:18;99762.88;;;7.81;62.84
63552;BME280;49698;48.072;7.800;2023-03-03T12:26:53;99772.25;;;7.84;63.17
63552;BME280;49698;48.072;7.800;2023-03-03T12:29:34;99767.28;;;7.98;63.05
63552;BME280;49698;48.072;7.800;2023-03-03T12:32:17;99766.84;;;8.11;62.49
63552;BME280;49698;48.072;7.800;2023-03-03T12:34:51;99753.81;;;8.25;62.22
63552;BME280;49698;48.072;7.800;2023-03-03T12:37:33;99758.63;;;8.23;62.25
63552;BME280;49698;48.072;7.800;2023-03-03T12:40:09;99755.97;;;8.28;62.00
63552;BME280;49698;48.072;7.800;2023-03-03T12:42:50;99746.44;;;8.42;61.60
63552;BME280;49698;48.072;7.800;2023-03-03T12:45:32;99746.22;;;8.54;61.02
63552;BME280;49698;48.072;7.800;2023-03-03T12:48:07;99752.44;;;8.60;60.69
63552;BME280;49698;48.072;7.800;2023-03-03T12:50:45;99746.81;;;8.61;60.41
63552;BME280;49698;48.072;7.800;2023-03-03T12:53:30;99742.81;;;8.64;60.41
63552;BME280;49698;48.072;7.800;2023-03-03T12:56:03;99739.59;;;8.67;60.37
63552;BME280;49698;48.072;7.800;2023-03-03T12:58:39;99744.41;;;8.65;60.21
63552;BME280;49698;48.072;7.800;2023-03-03T13:01:23;99740.94;;;8.69;60.60
63552;BME280;49698;48.072;7.800;2023-03-03T13:04:03;99743.09;;;8.72;60.41
63552;BME280;49698;48.072;7.800;2023-03-03T13:06:39;99745.72;;;8.62;60.85
63552;BME280;49698;48.072;7.800;2023-03-03T13:09:19;99740.66;;;8.61;60.86
63552;BME280;49698;48.072;7.800;2023-03-03T13:12:07;99748.16;;;8.64;60.86
63552;BME280;49698;48.072;7.800;2023-03-03T13:14:46;99740.94;;;8.64;60.75
63552;BME280;49698;48.072;7.800;2023-03-03T13:17:21;99746.03;;;8.71;60.74
63552;BME280;49698;48.072;7.800;2023-03-03T13:19:55;99737.19;;;8.70;60.67
63552;BME280;49698;48.072;7.800;2023-03-03T13:22:34;99756.28;;;8.79;60.78
63552;BME280;49698;48.072;7.800;2023-03-03T13:25:07;99749.56;;;8.87;60.88
63552;BME280;49698;48.072;7.800;2023-03-03T13:27:47;99755.25;;;8.95;60.76
63552;BME280;49698;48.072;7.800;2023-03-03T13:30:21;99742.88;;;8.89;60.57
63552;BME280;49698;48.072;7.800;2023-03-03T13:32:55;99747.94;;;8.75;61.13
63552;BME280;49698;48.072;7.800;2023-03-03T13:35:32;99743.34;;;8.71;61.21
63552;BME280;49698;48.072;7.800;2023-03-03T13:38:09;99735.31;;;8.66;61.74
63552;BME280;49698;48.072;7.800;2023-03-03T13:40:42;99738.53;;;8.68;61.48
63552;BME280;49698;48.072;7.800;2023-03-03T13:43:15;99734.22;;;8.62;61.84
63552;BME280;49698;48.072;7.800;2023-03-03T13:46:04;99724.53;;;8.55;61.75
63552;BME280;49698;48.072;7.800;2023-03-03T13:51:44;99723.41;;;8.46;62.09